sensor_id;sensor_type;location;lat;lon;timestamp;temperature;humidity
11569;DHT22;5840;46.894;15.542;2023-08-31T00:02:06;15.00;99.90
11569;DHT22;5840;46.894;15.542;2023-08-31T00:04:35;15.00;99.90
11569;DHT22;5840;46.894;15.542;2023-08-31T00:07:01;15.00;99.90
11569;DHT22;5840;46.894;15.542;2023-08-31T00:09:29;15.00;99.90
11569;DHT22;5840;46.894;15.542;2023-08-31T00:11:56;15.00;99.90
11569;DHT22;5840;46.894;15.542;2023-08-31T00:14:23;14.90;99.90
11569;DHT22;5840;46.894;15.542;2023-08-31T00:16:51;15.00;99.90
11569;DHT22;5840;46.894;15.542;2023-08-31T00:19:18;14.90;99.90
11569;DHT22;5840;46.894;15.542;2023-08-31T00:21:45;14.90;99.90
11569;DHT22;5840;46.894;15.542;2023-08-31T00:24:14;14.90;99.90
11569;DHT22;5840;46.894;15.542;2023-08-31T00:26:41;14.90;99.90
11569;DHT22;5840;46.894;15.542;2023-08-31T00:29:09;14.90;99.90
11569;DHT22;5840;46.894;15.542;2023-08-31T00:31:36;14.90;99.90
11569;DHT22;5840;46.894;15.542;2023-08-31T00:34:04;14.90;99.90
11569;DHT22;5840;46.894;15.542;2023-08-31T00:36:32;14.90;99.90
11569;DHT22;5840;46.894;15.542;2023-08-31T00:39:03;14.90;99.90
11569;DHT22;5840;46.894;15.542;2023-08-31T00:41:33;14.90;99.90
11569;DHT22;5840;46.894;15.542;2023-08-31T00:44:00;14.90;99.90
11569;DHT22;5840;46.894;15.542;2023-08-31T00:46:26;14.90;99.90
11569;DHT22;5840;46.894;15.542;2023-08-31T00:48:54;14.90;99.90
11569;DHT22;5840;46.894;15.542;2023-08-31T00:51:23;14.90;99.90
11569;DHT22;5840;46.894;15.542;2023-08-31T00:53:51;14.90;99.90
11569;DHT22;5840;46.894;15.542;2023-08-31T00:56:19;14.90;99.90
11569;DHT22;5840;46.894;15.542;2023-08-31T00:58:46;14.90;99.90
11569;DHT22;5840;46.894;15.542;2023-08-31T01:01:18;14.90;99.90
11569;DHT22;5840;46.894;15.542;2023-08-31T01:03:53;14.80;99.90
11569;DHT22;5840;46.894;15.542;2023-08-31T01:06:30;14.90;99.90
11569;DHT22;5840;46.894;15.542;2023-08-31T01:09:04;14.90;99.90
11569;DHT22;5840;46.894;15.542;2023-08-31T01:11:40;14.90;99.90
11569;DHT22;5840;46.894;15.542;2023-08-31T01:14:16;14.80;99.90
11569;DHT22;5840;46.894;15.542;2023-08-31T01:16:47;14.80;99.90
11569;DHT22;5840;46.894;15.542;2023-08-31T01:19:26;14.90;99.90
11569;DHT22;5840;46.894;15.542;2023-08-31T01:22:01;14.80;99.90
11569;DHT22;5840;46.894;15.542;2023-08-31T01:24:31;14.80;99.90
11569;DHT22;5840;46.894;15.542;2023-08-31T01:26:58;14.80;99.90
11569;DHT22;5840;46.894;15.542;2023-08-31T01:29:25;14.80;99.90
11569;DHT22;5840;46.894;15.542;2023-08-31T01:31:52;14.80;99.90
11569;DHT22;5840;46.894;15.542;2023-08-31T01:34:19;14.80;99.90
11569;DHT22;5840;46.894;15.542;2023-08-31T01:36:50;14.80;99.90
11569;DHT22;5840;46.894;15.542;2023-08-31T01:39:26;14.80;99.90
11569;DHT22;5840;46.894;15.542;2023-08-31T01:41:58;14.80;99.90
11569;DHT22;5840;46.894;15.542;2023-08-31T01:44:29;14.80;99.90
11569;DHT22;5840;46.894;15.542;2023-08-31T01:47:05;14.80;99.90
11569;DHT22;5840;46.894;15.542;2023-08-31T01:49:36;14.80;99.90
11569;DHT22;5840;46.894;15.542;2023-08-31T01:52:04;14.80;99.90
11569;DHT22;5840;46.894;15.542;2023-08-31T01:54:31;14.70;99.90
11569;DHT22;5840;46.894;15.542;2023-08-31T01:57:00;14.80;99.90
11569;DHT22;5840;46.894;15.542;2023-08-31T01:59:28;14.70;99.90
11569;DHT22;5840;46.894;15.542;2023-08-31T02:01:55;14.70;99.90
11569;DHT22;5840;46.894;15.542;2023-08-31T02:04:22;14.70;99.90
11569;DHT22;5840;46.894;15.542;2023-08-31T02:06:49;14.70;99.90
11569;DHT22;5840;46.894;15.542;2023-08-31T02:09:16;14.70;99.90
11569;DHT22;5840;46.894;15.542;2023-08-31T02:11:42;14.70;99.90
11569;DHT22;5840;46.894;15.542;2023-08-31T02:14:11;14.70;99.90
11569;DHT22;5840;46.894;15.542;2023-08-31T02:16:38;14.60;99.90
11569;DHT22;5840;46.894;15.542;2023-08-31T02:19:05;14.60;99.90
11569;DHT22;5840;46.894;15.542;2023-08-31T02:21:32;14.60;99.90
11569;DHT22;5840;46.894;15.542;2023-08-31T02:23:58;14.60;99.90
11569;DHT22;5840;46.894;15.542;2023-08-31T02:26:25;14.60;99.90
11569;DHT22;5840;46.894;15.542;2023-08-31T02:28:52;14.60;99.90
11569;DHT22;5840;46.894;15.542;2023-08-31T02:31:20;14.60;99.90
11569;DHT22;5840;46.894;15.542;2023-08-31T02:33:47;14.50;99.90
11569;DHT22;5840;46.894;15.542;2023-08-31T02:36:15;14.50;99.90
11569;DHT22;5840;46.894;15.542;2023-08-31T02:38:42;14.50;99.90
11569;DHT22;5840;46.894;15.542;2023-08-31T02:41:09;14.50;99.90
11569;DHT22;5840;46.894;15.542;2023-08-31T02:43:36;14.50;99.90
11569;DHT22;5840;46.894;15.542;2023-08-31T02:46:03;14.50;99.90
11569;DHT22;5840;46.894;15.542;2023-08-31T02:48:32;14.50;99.90
11569;DHT22;5840;46.894;15.542;2023-08-31T02:51:00;14.50;99.90
11569;DHT22;5840;46.894;15.542;2023-08-31T02:53:28;14.40;99.90
11569;DHT22;5840;46.894;15.542;2023-08-31T02:55:55;14.30;99.90
11569;DHT22;5840;46.894;15.542;2023-08-31T02:58:23;14.30;99.90
11569;DHT22;5840;46.894;15.542;2023-08-31T03:00:50;14.30;99.90
11569;DHT22;5840;46.894;15.542;2023-08-31T03:03:18;14.30;99.90
11569;DHT22;5840;46.894;15.542;2023-08-31T03:05:47;14.30;99.90
11569;DHT22;5840;46.894;15.542;2023-08-31T03:08:14;14.30;99.90
11569;DHT22;5840;46.894;15.542;2023-08-31T03:10:41;14.30;99.90
11569;DHT22;5840;46.894;15.542;2023-08-31T03:13:08;14.30;99.90
11569;DHT22;5840;46.894;15.542;2023-08-31T03:15:34;14.30;99.90
11569;DHT22;5840;46.894;15.542;2023-08-31T03:18:02;14.30;99.90
11569;DHT22;5840;46.894;15.542;2023-08-31T03:20:29;14.30;99.90
11569;DHT22;5840;46.894;15.542;2023-08-31T03:22:57;14.30;99.90
11569;DHT22;5840;46.894;15.542;2023-08-31T03:25:24;14.20;99.90
11569;DHT22;5840;46.894;15.542;2023-08-31T03:27:51;14.20;99.90
11569;DHT22;5840;46.894;15.542;2023-08-31T03:30:18;14.20;99.90
11569;DHT22;5840;46.894;15.542;2023-08-31T03:32:45;14.20;99.90
11569;DHT22;5840;46.894;15.542;2023-08-31T03:35:11;14.20;99.90
11569;DHT22;5840;46.894;15.542;2023-08-31T03:37:39;14.20;99.90
11569;DHT22;5840;46.894;15.542;2023-08-31T03:40:08;14.20;99.90
11569;DHT22;5840;46.894;15.542;2023-08-31T03:42:36;14.20;99.90
11569;DHT22;5840;46.894;15.542;2023-08-31T03:45:03;14.20;99.90
11569;DHT22;5840;46.894;15.542;2023-08-31T03:47:30;14.20;99.90
11569;DHT22;5840;46.894;15.542;2023-08-31T03:49:57;14.20;99.90
11569;DHT22;5840;46.894;15.542;2023-08-31T03:52:24;14.20;99.90
11569;DHT22;5840;46.894;15.542;2023-08-31T03:54:51;14.20;99.90
11569;DHT22;5840;46.894;15.542;2023-08-31T03:57:20;14.10;99.90
11569;DHT22;5840;46.894;15.542;2023-08-31T03:59:47;14.10;99.90
11569;DHT22;5840;46.894;15.542;2023-08-31T04:02:14;14.10;99.90
11569;DHT22;5840;46.894;15.542;2023-08-31T04:04:41;14.10;99.90
11569;DHT22;5840;46.894;15.542;2023-08-31T04:07:08;14.10;99.90
11569;DHT22;5840;46.894;15.542;2023-08-31T04:09:35;14.10;99.90
11569;DHT22;5840;46.894;15.542;2023-08-31T04:12:03;14.00;99.90
11569;DHT22;5840;46.894;15.542;2023-08-31T04:14:31;14.00;99.90
11569;DHT22;5840;46.894;15.542;2023-08-31T04:16:58;14.00;99.90
11569;DHT22;5840;46.894;15.542;2023-08-31T04:19:25;14.00;99.90
11569;DHT22;5840;46.894;15.542;2023-08-31T04:21:52;14.00;99.90
11569;DHT22;5840;46.894;15.542;2023-08-31T04:24:19;14.00;99.90
11569;DHT22;5840;46.894;15.542;2023-08-31T04:26:46;14.00;99.90
11569;DHT22;5840;46.894;15.542;2023-08-31T04:29:15;14.00;99.90
11569;DHT22;5840;46.894;15.542;2023-08-31T04:31:43;14.00;99.90
11569;DHT22;5840;46.894;15.542;2023-08-31T04:34:10;14.00;99.90
11569;DHT22;5840;46.894;15.542;2023-08-31T04:36:37;14.00;99.90
11569;DHT22;5840;46.894;15.542;2023-08-31T04:39:04;14.00;99.90
11569;DHT22;5840;46.894;15.542;2023-08-31T04:41:33;14.00;99.90
11569;DHT22;5840;46.894;15.542;2023-08-31T04:44:00;14.00;99.90
11569;DHT22;5840;46.894;15.542;2023-08-31T04:46:26;14.00;99.90
11569;DHT22;5840;46.894;15.542;2023-08-31T04:48:55;14.00;99.90
11569;DHT22;5840;46.894;15.542;2023-08-31T04:51:29;14.00;99.90
11569;DHT22;5840;46.894;15.542;2023-08-31T04:53:57;14.00;99.90
11569;DHT22;5840;46.894;15.542;2023-08-31T04:56:24;14.00;99.90
11569;DHT22;5840;46.894;15.542;2023-08-31T04:58:51;14.10;99.90
11569;DHT22;5840;46.894;15.542;2023-08-31T05:01:18;14.10;99.90
11569;DHT22;5840;46.894;15.542;2023-08-31T05:03:45;14.10;99.90
11569;DHT22;5840;46.894;15.542;2023-08-31T05:06:13;14.20;99.90
11569;DHT22;5840;46.894;15.542;2023-08-31T05:08:40;14.20;99.90
11569;DHT22;5840;46.894;15.542;2023-08-31T05:11:07;14.20;99.90
11569;DHT22;5840;46.894;15.542;2023-08-31T05:13:34;14.30;99.90
11569;DHT22;5840;46.894;15.542;2023-08-31T05:16:03;14.20;99.90
11569;DHT22;5840;46.894;15.542;2023-08-31T05:18:30;14.20;99.90
11569;DHT22;5840;46.894;15.542;2023-08-31T05:20:57;14.20;99.90
11569;DHT22;5840;46.894;15.542;2023-08-31T05:23:25;14.20;99.90
11569;DHT22;5840;46.894;15.542;2023-08-31T05:25:52;14.30;99.90
11569;DHT22;5840;46.894;15.542;2023-08-31T05:28:20;14.30;99.90
11569;DHT22;5840;46.894;15.542;2023-08-31T05:30:48;14.30;99.90
11569;DHT22;5840;46.894;15.542;2023-08-31T05:33:16;14.30;99.90
11569;DHT22;5840;46.894;15.542;2023-08-31T05:35:43;14.40;99.90
11569;DHT22;5840;46.894;15.542;2023-08-31T05:38:10;14.40;99.90
11569;DHT22;5840;46.894;15.542;2023-08-31T05:40:38;14.40;99.90
11569;DHT22;5840;46.894;15.542;2023-08-31T05:43:11;14.40;99.90
11569;DHT22;5840;46.894;15.542;2023-08-31T05:45:37;14.50;99.90
11569;DHT22;5840;46.894;15.542;2023-08-31T05:48:05;14.50;99.90
11569;DHT22;5840;46.894;15.542;2023-08-31T05:50:32;14.50;99.90
11569;DHT22;5840;46.894;15.542;2023-08-31T05:52:58;14.50;99.90
11569;DHT22;5840;46.894;15.542;2023-08-31T05:55:25;14.50;99.90
11569;DHT22;5840;46.894;15.542;2023-08-31T05:57:54;14.50;99.90
11569;DHT22;5840;46.894;15.542;2023-08-31T06:00:20;14.50;99.90
11569;DHT22;5840;46.894;15.542;2023-08-31T06:02:47;14.60;99.90
11569;DHT22;5840;46.894;15.542;2023-08-31T06:05:14;14.60;99.90
11569;DHT22;5840;46.894;15.542;2023-08-31T06:07:42;14.70;99.90
11569;DHT22;5840;46.894;15.542;2023-08-31T06:10:09;14.80;99.90
11569;DHT22;5840;46.894;15.542;2023-08-31T06:12:36;14.80;99.90
11569;DHT22;5840;46.894;15.542;2023-08-31T06:15:06;14.90;99.90
11569;DHT22;5840;46.894;15.542;2023-08-31T06:17:33;15.00;99.90
11569;DHT22;5840;46.894;15.542;2023-08-31T06:20:00;15.10;99.90
11569;DHT22;5840;46.894;15.542;2023-08-31T06:22:29;15.20;99.90
11569;DHT22;5840;46.894;15.542;2023-08-31T06:24:56;15.20;99.90
11569;DHT22;5840;46.894;15.542;2023-08-31T06:27:23;15.20;99.90
11569;DHT22;5840;46.894;15.542;2023-08-31T06:29:49;15.30;99.90
11569;DHT22;5840;46.894;15.542;2023-08-31T06:32:18;15.30;99.90
11569;DHT22;5840;46.894;15.542;2023-08-31T06:34:45;15.50;99.90
11569;DHT22;5840;46.894;15.542;2023-08-31T06:37:12;15.50;99.90
11569;DHT22;5840;46.894;15.542;2023-08-31T06:39:39;15.60;99.90
11569;DHT22;5840;46.894;15.542;2023-08-31T06:42:06;15.70;99.90
11569;DHT22;5840;46.894;15.542;2023-08-31T06:44:33;15.80;99.90
11569;DHT22;5840;46.894;15.542;2023-08-31T06:47:00;15.90;99.90
11569;DHT22;5840;46.894;15.542;2023-08-31T06:49:30;16.10;99.90
11569;DHT22;5840;46.894;15.542;2023-08-31T06:51:59;16.20;99.90
11569;DHT22;5840;46.894;15.542;2023-08-31T06:54:26;16.30;99.90
11569;DHT22;5840;46.894;15.542;2023-08-31T06:56:53;16.40;99.90
11569;DHT22;5840;46.894;15.542;2023-08-31T06:59:19;16.50;99.90
11569;DHT22;5840;46.894;15.542;2023-08-31T07:01:46;16.60;99.90
11569;DHT22;5840;46.894;15.542;2023-08-31T07:04:13;16.80;99.90
11569;DHT22;5840;46.894;15.542;2023-08-31T07:06:41;16.90;99.90
11569;DHT22;5840;46.894;15.542;2023-08-31T07:09:08;16.90;99.90
11569;DHT22;5840;46.894;15.542;2023-08-31T07:11:36;17.00;99.90
11569;DHT22;5840;46.894;15.542;2023-08-31T07:14:02;17.00;99.90
11569;DHT22;5840;46.894;15.542;2023-08-31T07:16:29;17.10;99.90
11569;DHT22;5840;46.894;15.542;2023-08-31T07:18:56;17.20;99.90
11569;DHT22;5840;46.894;15.542;2023-08-31T07:21:23;17.30;99.90
11569;DHT22;5840;46.894;15.542;2023-08-31T07:23:52;17.50;99.90
11569;DHT22;5840;46.894;15.542;2023-08-31T07:26:19;17.60;99.90
11569;DHT22;5840;46.894;15.542;2023-08-31T07:28:46;17.70;99.90
11569;DHT22;5840;46.894;15.542;2023-08-31T07:31:13;17.80;99.90
11569;DHT22;5840;46.894;15.542;2023-08-31T07:33:41;17.90;99.90
11569;DHT22;5840;46.894;15.542;2023-08-31T07:36:08;18.00;99.90
11569;DHT22;5840;46.894;15.542;2023-08-31T07:38:35;18.10;99.90
11569;DHT22;5840;46.894;15.542;2023-08-31T07:41:03;18.20;99.90
11569;DHT22;5840;46.894;15.542;2023-08-31T07:43:30;18.20;99.90
11569;DHT22;5840;46.894;15.542;2023-08-31T07:45:57;18.40;99.90
11569;DHT22;5840;46.894;15.542;2023-08-31T07:48:24;18.60;99.90
11569;DHT22;5840;46.894;15.542;2023-08-31T07:50:51;18.90;99.90
11569;DHT22;5840;46.894;15.542;2023-08-31T07:53:18;19.30;99.90
11569;DHT22;5840;46.894;15.542;2023-08-31T07:55:52;19.50;99.90
11569;DHT22;5840;46.894;15.542;2023-08-31T07:58:22;19.80;99.90
11569;DHT22;5840;46.894;15.542;2023-08-31T08:00:49;20.00;99.90
11569;DHT22;5840;46.894;15.542;2023-08-31T08:03:16;20.30;99.90
11569;DHT22;5840;46.894;15.542;2023-08-31T08:05:42;20.40;99.90
11569;DHT22;5840;46.894;15.542;2023-08-31T08:08:09;20.50;99.90
11569;DHT22;5840;46.894;15.542;2023-08-31T08:10:37;20.50;99.90
11569;DHT22;5840;46.894;15.542;2023-08-31T08:13:04;20.60;99.90
11569;DHT22;5840;46.894;15.542;2023-08-31T08:15:32;20.80;99.90
11569;DHT22;5840;46.894;15.542;2023-08-31T08:17:59;21.00;99.90
11569;DHT22;5840;46.894;15.542;2023-08-31T08:20:27;21.00;99.90
11569;DHT22;5840;46.894;15.542;2023-08-31T08:22:54;21.30;99.90
11569;DHT22;5840;46.894;15.542;2023-08-31T08:25:23;21.50;99.90
11569;DHT22;5840;46.894;15.542;2023-08-31T08:27:50;21.70;99.90
11569;DHT22;5840;46.894;15.542;2023-08-31T08:30:17;21.80;99.90
11569;DHT22;5840;46.894;15.542;2023-08-31T08:32:46;21.90;99.90
11569;DHT22;5840;46.894;15.542;2023-08-31T08:35:13;22.00;99.90
11569;DHT22;5840;46.894;15.542;2023-08-31T08:37:40;22.00;99.90
11569;DHT22;5840;46.894;15.542;2023-08-31T08:40:09;22.20;99.90
11569;DHT22;5840;46.894;15.542;2023-08-31T08:42:39;22.40;99.90
11569;DHT22;5840;46.894;15.542;2023-08-31T08:45:09;22.40;99.90
11569;DHT22;5840;46.894;15.542;2023-08-31T08:47:41;22.50;99.90
11569;DHT22;5840;46.894;15.542;2023-08-31T08:50:10;22.60;99.90
11569;DHT22;5840;46.894;15.542;2023-08-31T08:52:38;22.80;99.90
11569;DHT22;5840;46.894;15.542;2023-08-31T08:55:06;22.80;99.90
11569;DHT22;5840;46.894;15.542;2023-08-31T08:57:34;22.80;99.90
11569;DHT22;5840;46.894;15.542;2023-08-31T09:00:01;22.80;99.90
11569;DHT22;5840;46.894;15.542;2023-08-31T09:02:29;22.80;99.90
11569;DHT22;5840;46.894;15.542;2023-08-31T09:04:56;22.90;99.90
11569;DHT22;5840;46.894;15.542;2023-08-31T09:07:24;23.00;99.90
11569;DHT22;5840;46.894;15.542;2023-08-31T09:09:54;23.00;99.90
11569;DHT22;5840;46.894;15.542;2023-08-31T09:12:22;23.20;99.90
11569;DHT22;5840;46.894;15.542;2023-08-31T09:15:00;23.30;99.90
11569;DHT22;5840;46.894;15.542;2023-08-31T09:17:37;23.20;99.90
11569;DHT22;5840;46.894;15.542;2023-08-31T09:20:05;23.20;99.90
11569;DHT22;5840;46.894;15.542;2023-08-31T09:22:34;23.20;99.90
11569;DHT22;5840;46.894;15.542;2023-08-31T09:25:01;23.20;99.90
11569;DHT22;5840;46.894;15.542;2023-08-31T09:27:28;23.20;99.90
11569;DHT22;5840;46.894;15.542;2023-08-31T09:29:56;23.40;99.90
11569;DHT22;5840;46.894;15.542;2023-08-31T09:32:24;23.40;99.90
11569;DHT22;5840;46.894;15.542;2023-08-31T09:34:51;23.60;99.90
11569;DHT22;5840;46.894;15.542;2023-08-31T09:37:18;23.70;99.90
11569;DHT22;5840;46.894;15.542;2023-08-31T09:39:46;23.90;99.90
11569;DHT22;5840;46.894;15.542;2023-08-31T09:42:13;24.00;99.90
11569;DHT22;5840;46.894;15.542;2023-08-31T09:44:42;23.80;99.90
11569;DHT22;5840;46.894;15.542;2023-08-31T09:47:09;23.90;99.90
11569;DHT22;5840;46.894;15.542;2023-08-31T09:49:37;24.20;99.90
11569;DHT22;5840;46.894;15.542;2023-08-31T09:52:05;24.40;99.90
11569;DHT22;5840;46.894;15.542;2023-08-31T09:54:35;24.60;99.90
11569;DHT22;5840;46.894;15.542;2023-08-31T09:57:04;24.80;99.90
11569;DHT22;5840;46.894;15.542;2023-08-31T09:59:31;25.00;99.90
11569;DHT22;5840;46.894;15.542;2023-08-31T10:02:00;25.00;98.60
11569;DHT22;5840;46.894;15.542;2023-08-31T10:04:29;24.90;99.90
11569;DHT22;5840;46.894;15.542;2023-08-31T10:06:59;25.00;99.90
11569;DHT22;5840;46.894;15.542;2023-08-31T10:09:26;25.00;99.90
11569;DHT22;5840;46.894;15.542;2023-08-31T10:11:54;25.20;99.90
11569;DHT22;5840;46.894;15.542;2023-08-31T10:14:23;25.30;99.90
11569;DHT22;5840;46.894;15.542;2023-08-31T10:16:50;25.40;99.90
11569;DHT22;5840;46.894;15.542;2023-08-31T10:19:18;25.30;99.90
11569;DHT22;5840;46.894;15.542;2023-08-31T10:21:45;25.30;99.70
11569;DHT22;5840;46.894;15.542;2023-08-31T10:24:12;25.20;99.20
11569;DHT22;5840;46.894;15.542;2023-08-31T10:26:39;25.20;99.90
11569;DHT22;5840;46.894;15.542;2023-08-31T10:29:06;25.40;99.90
11569;DHT22;5840;46.894;15.542;2023-08-31T10:31:53;25.30;98.90
11569;DHT22;5840;46.894;15.542;2023-08-31T10:34:34;25.50;99.90
11569;DHT22;5840;46.894;15.542;2023-08-31T10:37:02;25.40;97.80
11569;DHT22;5840;46.894;15.542;2023-08-31T10:39:37;25.40;98.20
11569;DHT22;5840;46.894;15.542;2023-08-31T10:42:04;25.30;95.50
11569;DHT22;5840;46.894;15.542;2023-08-31T10:44:31;25.40;98.00
11569;DHT22;5840;46.894;15.542;2023-08-31T10:47:03;25.50;94.40
11569;DHT22;5840;46.894;15.542;2023-08-31T10:49:30;25.80;99.90
11569;DHT22;5840;46.894;15.542;2023-08-31T10:52:15;26.00;99.90
11569;DHT22;5840;46.894;15.542;2023-08-31T10:54:42;26.00;97.80
11569;DHT22;5840;46.894;15.542;2023-08-31T10:57:09;25.90;95.10
11569;DHT22;5840;46.894;15.542;2023-08-31T10:59:49;25.70;99.00
11569;DHT22;5840;46.894;15.542;2023-08-31T11:02:46;25.50;95.80
11569;DHT22;5840;46.894;15.542;2023-08-31T11:05:14;25.50;97.40
11569;DHT22;5840;46.894;15.542;2023-08-31T11:07:42;25.40;96.70
11569;DHT22;5840;46.894;15.542;2023-08-31T11:10:14;25.30;98.70
11569;DHT22;5840;46.894;15.542;2023-08-31T11:12:43;25.20;94.70
11569;DHT22;5840;46.894;15.542;2023-08-31T11:15:14;25.20;98.00
11569;DHT22;5840;46.894;15.542;2023-08-31T11:17:41;25.30;99.90
11569;DHT22;5840;46.894;15.542;2023-08-31T11:20:14;25.50;95.30
11569;DHT22;5840;46.894;15.542;2023-08-31T11:22:44;25.60;97.50
11569;DHT22;5840;46.894;15.542;2023-08-31T11:25:12;25.50;96.10
11569;DHT22;5840;46.894;15.542;2023-08-31T11:27:40;25.60;95.70
11569;DHT22;5840;46.894;15.542;2023-08-31T11:30:16;25.70;97.10
11569;DHT22;5840;46.894;15.542;2023-08-31T11:32:47;25.60;94.40
11569;DHT22;5840;46.894;15.542;2023-08-31T11:35:16;25.50;94.50
11569;DHT22;5840;46.894;15.542;2023-08-31T11:37:44;25.40;96.00
11569;DHT22;5840;46.894;15.542;2023-08-31T11:40:11;25.20;94.50
11569;DHT22;5840;46.894;15.542;2023-08-31T11:42:40;25.20;95.70
11569;DHT22;5840;46.894;15.542;2023-08-31T11:45:08;25.00;98.80
11569;DHT22;5840;46.894;15.542;2023-08-31T11:47:36;24.90;96.10
11569;DHT22;5840;46.894;15.542;2023-08-31T11:50:06;24.80;94.00
11569;DHT22;5840;46.894;15.542;2023-08-31T11:52:35;24.80;95.10
11569;DHT22;5840;46.894;15.542;2023-08-31T11:55:02;25.00;95.60
11569;DHT22;5840;46.894;15.542;2023-08-31T11:57:29;25.30;96.70
11569;DHT22;5840;46.894;15.542;2023-08-31T11:59:56;25.30;96.20
11569;DHT22;5840;46.894;15.542;2023-08-31T12:02:22;25.50;95.40
11569;DHT22;5840;46.894;15.542;2023-08-31T12:04:49;25.60;96.70
11569;DHT22;5840;46.894;15.542;2023-08-31T12:07:17;25.60;94.40
11569;DHT22;5840;46.894;15.542;2023-08-31T12:09:46;25.70;97.60
11569;DHT22;5840;46.894;15.542;2023-08-31T12:12:14;25.70;94.20
11569;DHT22;5840;46.894;15.542;2023-08-31T12:14:41;25.50;91.90
11569;DHT22;5840;46.894;15.542;2023-08-31T12:17:08;25.60;95.40
11569;DHT22;5840;46.894;15.542;2023-08-31T12:19:37;25.40;94.50
11569;DHT22;5840;46.894;15.542;2023-08-31T12:22:04;25.30;92.20
11569;DHT22;5840;46.894;15.542;2023-08-31T12:24:37;25.30;96.20
11569;DHT22;5840;46.894;15.542;2023-08-31T12:27:07;25.20;94.60
11569;DHT22;5840;46.894;15.542;2023-08-31T12:29:34;25.10;92.20
11569;DHT22;5840;46.894;15.542;2023-08-31T12:32:01;25.10;95.90
11569;DHT22;5840;46.894;15.542;2023-08-31T12:34:28;25.10;95.30
11569;DHT22;5840;46.894;15.542;2023-08-31T12:36:56;25.30;93.90
11569;DHT22;5840;46.894;15.542;2023-08-31T12:39:25;25.20;93.10
11569;DHT22;5840;46.894;15.542;2023-08-31T12:41:52;25.30;95.10
11569;DHT22;5840;46.894;15.542;2023-08-31T12:44:21;25.30;95.80
11569;DHT22;5840;46.894;15.542;2023-08-31T12:46:48;25.20;96.60
11569;DHT22;5840;46.894;15.542;2023-08-31T12:49:15;25.30;94.70
11569;DHT22;5840;46.894;15.542;2023-08-31T12:51:42;25.30;95.50
11569;DHT22;5840;46.894;15.542;2023-08-31T12:54:09;25.40;92.10
11569;DHT22;5840;46.894;15.542;2023-08-31T12:56:36;25.50;93.20
11569;DHT22;5840;46.894;15.542;2023-08-31T12:59:03;25.40;91.90
11569;DHT22;5840;46.894;15.542;2023-08-31T13:01:33;25.60;93.90
11569;DHT22;5840;46.894;15.542;2023-08-31T13:03:59;25.80;95.10
11569;DHT22;5840;46.894;15.542;2023-08-31T13:06:26;25.90;96.20
11569;DHT22;5840;46.894;15.542;2023-08-31T13:08:54;25.70;96.90
11569;DHT22;5840;46.894;15.542;2023-08-31T13:11:21;25.70;96.10
11569;DHT22;5840;46.894;15.542;2023-08-31T13:13:50;25.60;93.30
11569;DHT22;5840;46.894;15.542;2023-08-31T13:16:18;25.50;92.40
11569;DHT22;5840;46.894;15.542;2023-08-31T13:18:46;25.30;92.20
11569;DHT22;5840;46.894;15.542;2023-08-31T13:21:13;25.30;94.30
11569;DHT22;5840;46.894;15.542;2023-08-31T13:23:40;25.20;96.20
11569;DHT22;5840;46.894;15.542;2023-08-31T13:26:08;25.20;93.20
11569;DHT22;5840;46.894;15.542;2023-08-31T13:28:35;25.20;96.20
11569;DHT22;5840;46.894;15.542;2023-08-31T13:31:02;25.00;95.60
11569;DHT22;5840;46.894;15.542;2023-08-31T13:33:29;24.90;94.80
11569;DHT22;5840;46.894;15.542;2023-08-31T13:35:59;24.70;94.20
11569;DHT22;5840;46.894;15.542;2023-08-31T13:38:26;24.50;95.70
11569;DHT22;5840;46.894;15.542;2023-08-31T13:40:54;24.10;94.40
11569;DHT22;5840;46.894;15.542;2023-08-31T13:43:22;23.90;95.20
11569;DHT22;5840;46.894;15.542;2023-08-31T13:45:50;23.70;97.10
11569;DHT22;5840;46.894;15.542;2023-08-31T13:48:17;23.50;97.50
11569;DHT22;5840;46.894;15.542;2023-08-31T13:50:46;23.40;97.90
11569;DHT22;5840;46.894;15.542;2023-08-31T13:53:15;23.40;97.00
11569;DHT22;5840;46.894;15.542;2023-08-31T13:55:42;23.40;95.70
11569;DHT22;5840;46.894;15.542;2023-08-31T13:58:08;23.20;96.00
11569;DHT22;5840;46.894;15.542;2023-08-31T14:00:36;23.00;96.20
11569;DHT22;5840;46.894;15.542;2023-08-31T14:03:04;22.80;97.00
11569;DHT22;5840;46.894;15.542;2023-08-31T14:05:32;22.70;98.60
11569;DHT22;5840;46.894;15.542;2023-08-31T14:08:00;22.70;96.60
11569;DHT22;5840;46.894;15.542;2023-08-31T14:10:31;22.60;96.80
11569;DHT22;5840;46.894;15.542;2023-08-31T14:12:59;22.60;98.20
11569;DHT22;5840;46.894;15.542;2023-08-31T14:15:26;22.70;98.70
11569;DHT22;5840;46.894;15.542;2023-08-31T14:17:53;22.70;97.30
11569;DHT22;5840;46.894;15.542;2023-08-31T14:20:20;22.70;98.30
11569;DHT22;5840;46.894;15.542;2023-08-31T14:22:48;22.90;98.30
11569;DHT22;5840;46.894;15.542;2023-08-31T14:25:16;22.90;99.90
11569;DHT22;5840;46.894;15.542;2023-08-31T14:27:47;23.00;99.90
11569;DHT22;5840;46.894;15.542;2023-08-31T14:30:15;23.10;99.70
11569;DHT22;5840;46.894;15.542;2023-08-31T14:32:43;23.20;98.20
11569;DHT22;5840;46.894;15.542;2023-08-31T14:35:11;23.20;98.20
11569;DHT22;5840;46.894;15.542;2023-08-31T14:37:39;23.10;97.90
11569;DHT22;5840;46.894;15.542;2023-08-31T14:40:08;23.10;99.00
11569;DHT22;5840;46.894;15.542;2023-08-31T14:42:37;23.00;97.70
11569;DHT22;5840;46.894;15.542;2023-08-31T14:45:09;22.80;96.70
11569;DHT22;5840;46.894;15.542;2023-08-31T14:47:37;22.60;98.00
11569;DHT22;5840;46.894;15.542;2023-08-31T14:50:07;22.40;98.30
11569;DHT22;5840;46.894;15.542;2023-08-31T14:52:35;22.30;98.40
11569;DHT22;5840;46.894;15.542;2023-08-31T14:55:04;22.20;97.90
11569;DHT22;5840;46.894;15.542;2023-08-31T14:57:32;22.20;99.20
11569;DHT22;5840;46.894;15.542;2023-08-31T15:00:01;22.00;99.80
11569;DHT22;5840;46.894;15.542;2023-08-31T15:02:35;22.00;99.90
11569;DHT22;5840;46.894;15.542;2023-08-31T15:05:04;21.90;99.90
11569;DHT22;5840;46.894;15.542;2023-08-31T15:07:34;21.90;99.90
11569;DHT22;5840;46.894;15.542;2023-08-31T15:10:03;21.80;99.90
11569;DHT22;5840;46.894;15.542;2023-08-31T15:12:32;21.80;99.90
11569;DHT22;5840;46.894;15.542;2023-08-31T15:15:04;21.90;99.90
11569;DHT22;5840;46.894;15.542;2023-08-31T15:17:34;22.00;99.90
11569;DHT22;5840;46.894;15.542;2023-08-31T15:20:03;22.10;99.90
11569;DHT22;5840;46.894;15.542;2023-08-31T15:22:35;22.20;99.90
11569;DHT22;5840;46.894;15.542;2023-08-31T15:25:04;22.20;99.90
11569;DHT22;5840;46.894;15.542;2023-08-31T15:27:33;22.10;99.90
11569;DHT22;5840;46.894;15.542;2023-08-31T15:30:03;22.00;99.90
11569;DHT22;5840;46.894;15.542;2023-08-31T15:32:36;21.80;99.90
11569;DHT22;5840;46.894;15.542;2023-08-31T15:35:05;21.60;99.90
11569;DHT22;5840;46.894;15.542;2023-08-31T15:37:34;21.50;99.90